createdAt,value
2019-02-23T00:01:25.457Z,-6.60
2019-02-23T00:03:53.133Z,-6.70
2019-02-23T00:06:29.430Z,-6.70
2019-02-23T00:08:50.274Z,-6.70
2019-02-23T00:11:17.836Z,-6.70
2019-02-23T00:13:45.510Z,-6.80
2019-02-23T00:16:12.969Z,-6.80
2019-02-23T00:18:40.478Z,-6.80
2019-02-23T00:21:08.046Z,-6.90
2019-02-23T00:23:35.679Z,-6.90
2019-02-23T00:26:04.434Z,-6.90
2019-02-23T00:28:32.215Z,-6.90
2019-02-23T00:30:59.666Z,-6.80
2019-02-23T00:33:27.201Z,-6.80
2019-02-23T00:35:54.806Z,-6.70
2019-02-23T00:38:22.331Z,-6.70
2019-02-23T00:40:49.852Z,-6.70
2019-02-23T00:43:17.316Z,-6.70
2019-02-23T00:45:44.827Z,-6.60
2019-02-23T00:48:12.461Z,-6.60
2019-02-23T00:50:40.050Z,-6.60
2019-02-23T00:53:07.814Z,-6.60
2019-02-23T00:55:35.438Z,-6.60
2019-02-23T00:58:03.101Z,-6.60
2019-02-23T01:00:30.787Z,-6.60
2019-02-23T01:02:58.470Z,-6.60
2019-02-23T01:05:26.019Z,-6.60
2019-02-23T01:07:53.441Z,-6.60
2019-02-23T01:10:22.297Z,-6.60
2019-02-23T01:12:49.981Z,-6.60
2019-02-23T01:15:17.660Z,-6.50
2019-02-23T01:17:45.239Z,-6.50
2019-02-23T01:20:13.084Z,-6.50
2019-02-23T01:22:40.814Z,-6.50
2019-02-23T01:25:08.603Z,-6.50
2019-02-23T01:27:36.432Z,-6.50
2019-02-23T01:30:07.751Z,-6.50
2019-02-23T01:32:35.386Z,-6.60
2019-02-23T01:35:03.120Z,-6.60
2019-02-23T01:37:30.663Z,-6.60
2019-02-23T01:39:58.198Z,-6.70
2019-02-23T01:42:25.743Z,-6.70
2019-02-23T01:44:53.377Z,-6.70
2019-02-23T01:47:21.018Z,-6.70
2019-02-23T01:49:58.530Z,-6.70
2019-02-23T01:52:18.033Z,-6.70
2019-02-23T01:54:46.343Z,-6.70
2019-02-23T01:57:13.728Z,-6.80
2019-02-23T01:59:41.326Z,-6.70
2019-02-23T02:02:09.265Z,-6.80
2019-02-23T02:04:38.287Z,-6.70
2019-02-23T02:07:06.323Z,-6.70
2019-02-23T02:09:33.946Z,-6.60
2019-02-23T02:12:01.493Z,-6.70
2019-02-23T02:14:29.225Z,-6.70
2019-02-23T02:16:56.664Z,-6.70
2019-02-23T02:19:24.154Z,-6.70
2019-02-23T02:21:51.687Z,-6.80
2019-02-23T02:24:19.358Z,-6.80
2019-02-23T02:26:46.694Z,-6.90
2019-02-23T02:29:14.353Z,-7.00
2019-02-23T02:31:41.854Z,-7.00
2019-02-23T02:34:15.115Z,-7.10
2019-02-23T02:36:42.696Z,-7.10
2019-02-23T02:39:12.423Z,-7.10
2019-02-23T02:41:40.186Z,-7.20
2019-02-23T02:44:07.825Z,-7.30
2019-02-23T02:46:35.218Z,-7.40
2019-02-23T02:49:03.099Z,-7.40
2019-02-23T02:51:30.447Z,-7.40
2019-02-23T02:53:57.927Z,-7.50
2019-02-23T02:56:25.626Z,-7.50
2019-02-23T02:58:53.714Z,-7.60
2019-02-23T03:01:21.614Z,-7.60
2019-02-23T03:03:49.878Z,-7.70
2019-02-23T03:06:19.233Z,-7.70
2019-02-23T03:08:47.079Z,-7.70
2019-02-23T03:11:15.360Z,-7.80
2019-02-23T03:13:42.832Z,-7.80
2019-02-23T03:16:37.008Z,-7.90
2019-02-23T03:18:57.210Z,-7.90
2019-02-23T03:21:24.665Z,-7.90
2019-02-23T03:23:52.057Z,-7.80
2019-02-23T03:26:19.626Z,-7.80
2019-02-23T03:28:47.069Z,-7.70
2019-02-23T03:31:14.656Z,-7.60
2019-02-23T03:33:42.083Z,-7.50
2019-02-23T03:36:09.684Z,-7.40
2019-02-23T03:38:37.146Z,-7.40
2019-02-23T03:41:04.625Z,-7.30
2019-02-23T03:43:32.074Z,-7.30
2019-02-23T03:45:59.684Z,-7.30
2019-02-23T03:48:27.096Z,-7.30
2019-02-23T03:50:54.622Z,-7.30
2019-02-23T03:53:22.133Z,-7.40
2019-02-23T03:55:49.713Z,-7.50
2019-02-23T03:58:18.595Z,-7.50
2019-02-23T04:00:46.451Z,-7.60
2019-02-23T04:03:13.925Z,-7.70
2019-02-23T04:05:41.562Z,-7.80
2019-02-23T04:08:09.134Z,-7.90
2019-02-23T04:10:36.801Z,-7.90
2019-02-23T04:13:04.541Z,-8.00
2019-02-23T04:15:32.276Z,-8.00
2019-02-23T04:18:00.027Z,-8.10
2019-02-23T04:20:27.456Z,-8.10
2019-02-23T04:22:54.909Z,-8.20
2019-02-23T04:25:22.422Z,-8.20
2019-02-23T04:27:51.153Z,-8.20
2019-02-23T04:30:18.717Z,-8.30
2019-02-23T04:32:46.410Z,-8.30
2019-02-23T04:35:13.937Z,-8.40
2019-02-23T04:37:41.617Z,-8.40
2019-02-23T04:40:09.422Z,-8.40
2019-02-23T04:42:36.917Z,-8.50
2019-02-23T04:45:04.923Z,-8.50
2019-02-23T04:47:32.304Z,-8.60
2019-02-23T04:49:59.697Z,-8.60
2019-02-23T04:52:27.176Z,-8.60
2019-02-23T04:54:54.800Z,-8.60
2019-02-23T04:57:22.342Z,-8.70
2019-02-23T04:59:49.963Z,-8.80
2019-02-23T05:02:18.549Z,-8.70
2019-02-23T05:04:46.142Z,-8.70
2019-02-23T05:07:14.552Z,-8.70
2019-02-23T05:09:42.043Z,-8.80
2019-02-23T05:12:09.832Z,-8.80
2019-02-23T05:14:37.404Z,-8.90
2019-02-23T05:17:04.982Z,-8.90
2019-02-23T05:19:32.467Z,-9.00
2019-02-23T05:22:00.063Z,-9.00
2019-02-23T05:24:27.753Z,-9.10
2019-02-23T05:26:55.198Z,-9.20
2019-02-23T05:29:22.708Z,-9.10
2019-02-23T05:31:50.116Z,-9.10
2019-02-23T05:34:17.540Z,-9.10
2019-02-23T05:36:45.051Z,-9.10
2019-02-23T05:39:13.094Z,-9.10
2019-02-23T05:41:41.350Z,-9.20
2019-02-23T05:44:08.947Z,-9.20
2019-02-23T05:46:36.399Z,-9.20
2019-02-23T05:49:03.936Z,-9.20
2019-02-23T05:51:38.729Z,-9.20
2019-02-23T05:54:00.950Z,-9.20
2019-02-23T05:56:28.712Z,-9.20
2019-02-23T05:58:56.142Z,-9.10
2019-02-23T06:01:23.875Z,-9.10
2019-02-23T06:03:51.722Z,-9.10
2019-02-23T06:06:19.961Z,-9.00
2019-02-23T06:08:47.406Z,-8.90
2019-02-23T06:11:15.062Z,-8.90
2019-02-23T06:13:42.533Z,-8.80
2019-02-23T06:16:10.032Z,-8.70
2019-02-23T06:18:37.663Z,-8.60
2019-02-23T06:21:05.121Z,-8.40
2019-02-23T06:23:32.745Z,-8.20
2019-02-23T06:26:00.381Z,-7.90
2019-02-23T06:28:27.920Z,-7.70
2019-02-23T06:30:55.405Z,-7.40
2019-02-23T06:33:22.886Z,-7.20
2019-02-23T06:35:50.470Z,-6.90
2019-02-23T06:38:18.093Z,-6.70
2019-02-23T06:40:45.683Z,-6.50
2019-02-23T06:43:14.091Z,-6.30
2019-02-23T06:45:43.683Z,-6.00
2019-02-23T06:48:13.406Z,-5.90
2019-02-23T06:50:41.796Z,-5.40
2019-02-23T06:53:09.313Z,-5.10
2019-02-23T06:55:36.750Z,-4.70
2019-02-23T06:58:04.207Z,-4.20
2019-02-23T07:00:32.920Z,-3.70
2019-02-23T07:03:01.238Z,-3.40
2019-02-23T07:05:29.365Z,-3.00
2019-02-23T07:07:56.773Z,-2.50
2019-02-23T07:10:24.859Z,-2.00
2019-02-23T07:12:52.469Z,-1.30
2019-02-23T07:15:19.939Z,-0.60
2019-02-23T07:17:48.869Z,0.20
2019-02-23T07:20:16.742Z,1.00
2019-02-23T07:22:44.782Z,1.70
2019-02-23T07:25:12.809Z,2.30
2019-02-23T07:27:40.782Z,3.10
2019-02-23T07:30:09.878Z,3.60
2019-02-23T07:32:37.572Z,4.20
2019-02-23T07:35:05.373Z,4.80
2019-02-23T07:37:32.991Z,5.40
2019-02-23T07:40:01.552Z,5.90
2019-02-23T07:42:29.308Z,6.20
2019-02-23T07:44:57.054Z,6.80
2019-02-23T07:47:25.035Z,7.30
2019-02-23T07:49:52.905Z,7.90
2019-02-23T07:52:26.279Z,8.40
2019-02-23T07:54:50.260Z,8.90
2019-02-23T07:57:17.986Z,9.70
2019-02-23T07:59:45.666Z,10.20
2019-02-23T08:02:13.187Z,10.70
2019-02-23T08:04:40.718Z,11.30
2019-02-23T08:07:08.376Z,11.90
2019-02-23T08:09:37.037Z,12.30
2019-02-23T08:12:04.613Z,12.90
2019-02-23T08:14:34.898Z,13.60
2019-02-23T08:17:02.693Z,14.10
2019-02-23T08:19:30.417Z,14.80
2019-02-23T08:21:57.829Z,15.30
2019-02-23T08:24:25.639Z,15.30
2019-02-23T08:26:53.333Z,15.10
2019-02-23T08:29:20.913Z,15.20
2019-02-23T08:31:48.555Z,15.80
2019-02-23T08:34:16.197Z,16.80
2019-02-23T08:36:43.800Z,17.60
2019-02-23T08:39:11.717Z,17.90
2019-02-23T08:41:39.206Z,18.00
2019-02-23T08:44:06.893Z,18.50
2019-02-23T08:46:34.503Z,18.80
2019-02-23T08:49:02.054Z,18.80
2019-02-23T08:51:29.547Z,18.20
2019-02-23T08:53:57.413Z,17.80
2019-02-23T08:56:24.882Z,17.70
2019-02-23T08:58:52.655Z,17.50
2019-02-23T09:01:20.166Z,17.10
2019-02-23T09:03:50.743Z,16.90
2019-02-23T09:06:18.376Z,16.60
2019-02-23T09:08:45.884Z,16.30
2019-02-23T09:11:13.465Z,16.00
2019-02-23T09:13:40.905Z,15.50
2019-02-23T09:16:08.468Z,15.00
2019-02-23T09:18:35.970Z,14.60
2019-02-23T09:21:03.597Z,13.80
2019-02-23T09:23:31.073Z,13.20
2019-02-23T09:25:58.877Z,12.60
2019-02-23T09:28:26.294Z,12.60
2019-02-23T09:31:09.026Z,13.00
2019-02-23T09:33:36.378Z,13.60
2019-02-23T09:36:04.018Z,14.60
2019-02-23T09:38:31.709Z,16.10
2019-02-23T09:40:59.379Z,17.40
2019-02-23T09:43:27.908Z,19.30
2019-02-23T09:45:55.521Z,20.90
2019-02-23T09:48:23.334Z,22.30
2019-02-23T09:50:50.997Z,23.00
2019-02-23T09:53:18.680Z,23.30
2019-02-23T09:55:46.508Z,24.50
2019-02-23T09:58:13.933Z,25.90
2019-02-23T10:00:41.672Z,26.60
2019-02-23T10:03:10.077Z,27.10
2019-02-23T10:05:38.317Z,27.80
2019-02-23T10:08:06.301Z,28.00
2019-02-23T10:10:33.948Z,26.90
2019-02-23T10:13:01.535Z,27.00
2019-02-23T10:15:29.406Z,27.60
2019-02-23T10:17:57.030Z,28.30
2019-02-23T10:20:24.623Z,28.90
2019-02-23T10:22:52.131Z,29.70
2019-02-23T10:25:19.744Z,30.80
2019-02-23T10:27:48.406Z,31.40
2019-02-23T10:30:16.204Z,31.60
2019-02-23T10:32:44.712Z,32.30
2019-02-23T10:35:12.924Z,32.60
2019-02-23T10:37:40.515Z,32.70
2019-02-23T10:40:08.962Z,32.10
2019-02-23T10:42:36.617Z,31.00
2019-02-23T10:45:05.439Z,29.20
2019-02-23T10:47:32.863Z,26.40
2019-02-23T10:50:02.407Z,23.30
2019-02-23T10:52:30.307Z,21.80
2019-02-23T10:54:57.861Z,21.10
2019-02-23T10:57:32.946Z,19.60
2019-02-23T11:00:08.007Z,18.40
2019-02-23T11:02:48.941Z,18.30
2019-02-23T11:05:24.188Z,19.10
2019-02-23T11:07:57.905Z,20.60
2019-02-23T11:10:37.886Z,22.00
2019-02-23T11:13:07.649Z,22.60
2019-02-23T11:15:45.971Z,22.30
2019-02-23T11:18:17.850Z,22.20
2019-02-23T11:20:58.762Z,22.00
2019-02-23T11:23:50.983Z,22.00
2019-02-23T11:26:31.592Z,22.20
2019-02-23T11:29:02.904Z,22.80
2019-02-23T11:31:33.968Z,23.90
2019-02-23T11:34:07.501Z,26.10
2019-02-23T11:36:44.901Z,27.70
2019-02-23T11:39:13.992Z,29.00
2019-02-23T11:42:30.000Z,30.40
2019-02-23T11:45:00.847Z,30.90
2019-02-23T11:47:39.215Z,32.40
2019-02-23T11:50:13.588Z,33.80
2019-02-23T11:52:42.628Z,34.10
2019-02-23T11:55:14.760Z,34.00
2019-02-23T11:57:47.828Z,33.40
2019-02-23T12:00:17.636Z,33.90
2019-02-23T12:02:52.622Z,33.80
2019-02-23T12:05:33.393Z,34.30
2019-02-23T12:08:05.775Z,34.30
2019-02-23T12:10:42.001Z,35.20
2019-02-23T12:13:10.538Z,34.30
2019-02-23T12:15:40.125Z,35.00
2019-02-23T12:18:10.076Z,34.80
2019-02-23T12:20:42.802Z,33.10
2019-02-23T12:23:24.410Z,32.90
2019-02-23T12:26:15.204Z,31.50
2019-02-23T12:28:47.478Z,30.30
2019-02-23T12:31:18.714Z,27.40
2019-02-23T12:34:09.329Z,25.50
2019-02-23T12:36:39.527Z,25.20
2019-02-23T12:39:10.023Z,25.80
2019-02-23T12:42:45.419Z,25.30
2019-02-23T12:45:42.938Z,23.60
2019-02-23T12:48:22.384Z,21.70
2019-02-23T12:50:56.047Z,20.10
2019-02-23T12:53:28.432Z,18.50
2019-02-23T12:55:57.909Z,17.80
2019-02-23T12:58:26.083Z,17.00
2019-02-23T13:00:55.320Z,16.30
2019-02-23T13:03:28.250Z,15.30
2019-02-23T13:05:57.309Z,14.00
2019-02-23T13:09:07.409Z,13.20
2019-02-23T13:11:38.734Z,12.30
2019-02-23T13:14:53.754Z,11.10
2019-02-23T13:18:31.967Z,10.80
2019-02-23T13:21:57.562Z,10.10
2019-02-23T13:25:33.852Z,9.80
2019-02-23T13:28:58.298Z,9.60
2019-02-23T13:32:26.852Z,9.60
2019-02-23T13:35:46.237Z,10.10
2019-02-23T13:39:21.418Z,10.90
2019-02-23T13:42:39.609Z,12.10
2019-02-23T13:45:56.735Z,13.90
2019-02-23T13:49:14.378Z,15.80
2019-02-23T13:51:59.950Z,18.20
2019-02-23T13:55:39.498Z,20.70
2019-02-23T13:59:00.715Z,22.10
2019-02-23T14:02:16.666Z,24.40
2019-02-23T14:05:36.184Z,26.20
2019-02-23T14:08:52.282Z,26.50
2019-02-23T14:12:21.185Z,26.90
2019-02-23T14:15:48.084Z,26.50
2019-02-23T14:19:14.970Z,26.40
2019-02-23T14:22:30.319Z,26.70
2019-02-23T14:25:31.802Z,26.40
2019-02-23T14:28:46.207Z,25.80
2019-02-23T14:32:20.428Z,25.00
2019-02-23T14:36:06.985Z,24.50
2019-02-23T14:40:20.845Z,23.70
2019-02-23T14:43:57.985Z,22.20
2019-02-23T14:47:56.041Z,21.20
2019-02-23T14:55:07.961Z,16.30
2019-02-23T14:58:29.114Z,13.80
2019-02-23T15:01:38.386Z,12.00
2019-02-23T15:04:44.504Z,10.20
2019-02-23T15:08:01.822Z,8.90
2019-02-23T15:11:52.426Z,8.30
2019-02-23T15:15:31.630Z,7.30
2019-02-23T15:18:51.403Z,6.20
2019-02-23T15:22:18.595Z,6.50
2019-02-23T15:25:22.676Z,6.90
2019-02-23T15:28:49.261Z,7.30
2019-02-23T15:31:56.566Z,7.80
2019-02-23T15:35:20.303Z,7.30
2019-02-23T15:38:41.924Z,6.30
2019-02-23T15:49:29.284Z,3.90
2019-02-23T15:52:16.311Z,3.40
2019-02-23T15:54:43.850Z,3.10
2019-02-23T15:57:11.275Z,2.90
2019-02-23T15:59:40.254Z,2.80
2019-02-23T16:02:08.030Z,2.60
2019-02-23T16:04:35.433Z,2.40
2019-02-23T16:07:03.181Z,2.10
2019-02-23T16:09:30.878Z,2.10
2019-02-23T16:11:58.935Z,2.00
2019-02-23T16:14:26.375Z,1.80
2019-02-23T16:16:53.877Z,1.60
2019-02-23T16:19:21.586Z,1.50
2019-02-23T16:21:49.045Z,1.50
2019-02-23T16:24:16.609Z,1.40
2019-02-23T16:26:44.577Z,1.40
2019-02-23T16:29:12.051Z,1.40
2019-02-23T16:31:39.711Z,1.30
2019-02-23T16:34:07.670Z,1.20
2019-02-23T16:36:35.260Z,1.20
2019-02-23T16:39:06.432Z,1.10
2019-02-23T16:41:35.659Z,1.00
2019-02-23T16:44:03.421Z,0.90
2019-02-23T16:46:31.046Z,0.70
2019-02-23T16:48:59.230Z,0.40
2019-02-23T16:51:26.932Z,0.30
2019-02-23T16:53:54.343Z,-0.10
2019-02-23T16:56:21.967Z,-0.30
2019-02-23T16:58:49.970Z,-0.40
2019-02-23T17:01:17.427Z,-0.50
2019-02-23T17:03:45.092Z,-0.50
2019-02-23T17:06:12.945Z,-0.60
2019-02-23T17:08:40.521Z,-0.70
2019-02-23T17:11:07.952Z,-0.70
2019-02-23T17:13:35.395Z,-0.70
2019-02-23T17:16:02.958Z,-0.70
2019-02-23T17:18:30.618Z,-0.60
2019-02-23T17:20:58.347Z,-0.60
2019-02-23T17:23:26.484Z,-0.60
2019-02-23T17:26:03.723Z,-0.50
2019-02-23T17:28:23.696Z,-0.50
2019-02-23T17:30:51.291Z,-0.50
2019-02-23T17:33:18.770Z,-0.40
2019-02-23T17:35:46.370Z,-0.40
2019-02-23T17:38:16.896Z,-0.50
2019-02-23T17:40:43.432Z,-0.50
2019-02-23T17:43:11.156Z,-0.60
2019-02-23T17:45:38.957Z,-0.50
2019-02-23T17:48:07.058Z,-0.50
2019-02-23T17:50:35.451Z,-0.50
2019-02-23T17:53:03.251Z,-0.50
2019-02-23T17:55:31.755Z,-0.60
2019-02-23T17:57:59.447Z,-0.70
2019-02-23T18:00:27.910Z,-0.80
2019-02-23T18:02:55.424Z,-0.90
2019-02-23T18:05:22.869Z,-1.00
2019-02-23T18:07:50.742Z,-1.10
2019-02-23T18:10:18.267Z,-1.20
2019-02-23T18:12:45.695Z,-1.30
2019-02-23T18:15:13.518Z,-1.40
2019-02-23T18:17:42.144Z,-1.50
2019-02-23T18:20:11.371Z,-1.60
2019-02-23T18:22:39.248Z,-1.70
2019-02-23T18:25:07.204Z,-1.90
2019-02-23T18:27:34.757Z,-2.10
2019-02-23T18:30:10.750Z,-2.00
2019-02-23T18:32:32.627Z,-2.00
2019-02-23T18:35:00.579Z,-2.00
2019-02-23T18:37:28.524Z,-2.00
2019-02-23T18:39:56.057Z,-1.90
2019-02-23T18:42:23.448Z,-1.90
2019-02-23T18:44:51.102Z,-1.80
2019-02-23T18:47:18.782Z,-1.80
2019-02-23T18:49:46.579Z,-1.80
2019-02-23T18:52:15.464Z,-1.80
2019-02-23T18:54:47.567Z,-1.80
2019-02-23T18:57:23.182Z,-1.70
2019-02-23T18:59:57.918Z,-1.70
2019-02-23T19:02:31.174Z,-1.80
2019-02-23T19:05:06.539Z,-1.90
2019-02-23T19:07:38.586Z,-2.00
2019-02-23T19:10:13.865Z,-2.10
2019-02-23T19:12:46.905Z,-2.10
2019-02-23T19:15:20.447Z,-2.30
2019-02-23T19:17:50.127Z,-2.40
2019-02-23T19:20:20.788Z,-2.50
2019-02-23T19:22:50.282Z,-2.60
2019-02-23T19:25:20.780Z,-2.70
2019-02-23T19:27:49.660Z,-2.70
2019-02-23T19:30:19.725Z,-2.90
2019-02-23T19:32:49.504Z,-2.90
2019-02-23T19:35:19.546Z,-3.00
2019-02-23T19:37:47.747Z,-3.00
2019-02-23T19:40:15.404Z,-3.10
2019-02-23T19:42:43.053Z,-3.10
2019-02-23T19:45:10.881Z,-3.20
2019-02-23T19:47:39.112Z,-3.30
2019-02-23T19:50:12.658Z,-3.40
2019-02-23T19:52:41.398Z,-3.40
2019-02-23T19:55:11.422Z,-3.50
2019-02-23T19:57:39.048Z,-3.50
2019-02-23T20:00:06.947Z,-3.60
2019-02-23T20:02:34.649Z,-3.60
2019-02-23T20:05:02.332Z,-3.70
2019-02-23T20:07:30.270Z,-3.70
2019-02-23T20:09:58.514Z,-3.80
2019-02-23T20:12:28.261Z,-3.80
2019-02-23T20:14:57.047Z,-3.80
2019-02-23T20:17:25.290Z,-3.80
2019-02-23T20:19:52.920Z,-3.80
2019-02-23T20:22:20.575Z,-3.80
2019-02-23T20:24:49.130Z,-3.90
2019-02-23T20:27:16.621Z,-3.90
2019-02-23T20:29:44.204Z,-4.10
2019-02-23T20:32:12.629Z,-4.10
2019-02-23T20:34:42.367Z,-4.10
2019-02-23T20:37:12.301Z,-4.20
2019-02-23T20:39:42.743Z,-4.20
2019-02-23T20:42:10.670Z,-4.20
2019-02-23T20:44:41.174Z,-4.20
2019-02-23T20:47:09.206Z,-4.30
2019-02-23T20:49:36.824Z,-4.30
2019-02-23T20:52:04.352Z,-4.30
2019-02-23T20:54:32.201Z,-4.40
2019-02-23T20:57:05.121Z,-4.40
2019-02-23T20:59:31.258Z,-4.40
2019-02-23T21:01:59.024Z,-4.40
2019-02-23T21:04:26.974Z,-4.60
2019-02-23T21:06:54.421Z,-4.70
2019-02-23T21:09:22.271Z,-4.80
2019-02-23T21:11:52.991Z,-4.90
2019-02-23T21:14:22.385Z,-4.90
2019-02-23T21:16:52.793Z,-4.90
2019-02-23T21:19:20.415Z,-4.90
2019-02-23T21:21:47.957Z,-4.80
2019-02-23T21:24:15.670Z,-4.70
2019-02-23T21:26:43.192Z,-4.60
2019-02-23T21:29:10.873Z,-4.50
2019-02-23T21:31:38.412Z,-4.40
2019-02-23T21:34:06.200Z,-4.30
2019-02-23T21:36:33.964Z,-4.20
2019-02-23T21:39:03.325Z,-4.20
2019-02-23T21:41:32.607Z,-4.10
2019-02-23T21:44:00.307Z,-4.10
2019-02-23T21:46:27.797Z,-4.00
2019-02-23T21:48:55.389Z,-3.80
2019-02-23T21:51:23.424Z,-3.80
2019-02-23T21:53:51.089Z,-3.70
2019-02-23T21:56:19.904Z,-3.70
2019-02-23T21:58:48.502Z,-3.70
2019-02-23T22:01:16.043Z,-3.60
2019-02-23T22:03:43.705Z,-3.50
2019-02-23T22:06:11.513Z,-3.50
2019-02-23T22:08:39.024Z,-3.40
2019-02-23T22:11:07.066Z,-3.40
2019-02-23T22:13:34.439Z,-3.30
2019-02-23T22:16:04.316Z,-3.30
2019-02-23T22:18:31.802Z,-3.30
2019-02-23T22:20:59.325Z,-3.30
2019-02-23T22:23:26.989Z,-3.40
2019-02-23T22:25:54.496Z,-3.40
2019-02-23T22:28:22.030Z,-3.50
2019-02-23T22:30:50.747Z,-3.60
2019-02-23T22:33:18.403Z,-3.60
2019-02-23T22:35:46.037Z,-3.70
2019-02-23T22:38:13.594Z,-3.60
2019-02-23T22:40:41.596Z,-3.60
2019-02-23T22:43:09.096Z,-3.60
2019-02-23T22:45:36.994Z,-3.50
2019-02-23T22:48:04.627Z,-3.50
2019-02-23T22:50:32.021Z,-3.50
2019-02-23T22:52:59.662Z,-3.40
2019-02-23T22:55:27.128Z,-3.40
2019-02-23T22:57:54.509Z,-3.40
2019-02-23T23:00:25.278Z,-3.40
2019-02-23T23:02:56.284Z,-3.50
2019-02-23T23:05:23.911Z,-3.50
2019-02-23T23:07:51.900Z,-3.60
2019-02-23T23:10:19.324Z,-3.60
2019-02-23T23:12:46.722Z,-3.70
2019-02-23T23:15:14.426Z,-3.80
2019-02-23T23:17:44.938Z,-3.80
2019-02-23T23:20:12.270Z,-3.90
2019-02-23T23:22:39.813Z,-3.90
2019-02-23T23:25:07.555Z,-3.90
2019-02-23T23:27:37.973Z,-3.80
2019-02-23T23:30:05.637Z,-3.80
2019-02-23T23:32:33.382Z,-3.70
2019-02-23T23:35:01.087Z,-3.70
2019-02-23T23:37:28.596Z,-3.60
2019-02-23T23:39:57.381Z,-3.70
2019-02-23T23:42:25.572Z,-3.50
2019-02-23T23:44:52.963Z,-3.50
2019-02-23T23:47:20.544Z,-3.50
2019-02-23T23:49:49.386Z,-3.30
2019-02-23T23:52:16.827Z,-3.40
2019-02-23T23:54:44.719Z,-3.30
2019-02-23T23:57:12.247Z,-3.20
2019-02-23T23:59:40.079Z,-3.20
